Meridian, MS (39305)

4:29 PM CDT on August 27, 2015 (GMT -0500)
APRSWXNET | | Change Station
CLOSE
Current Station
Personal Weather Station
Location: Meridian, MS
Elevation: 327 ft
Nearby Weather Stations

Elev 327 ft 32.42 °N, 88.75 °W | Updated 29 minutes ago

Clear
Clear
83 °F
Feels Like 84 °F
N
0
Wind Variable Wind from North
Gusts 1.0 mph

Today
High -- | Low -- °F
--% Chance of Precip.
Yesterday
High -- | Low -- °F
Precip. -- in
6:26 AM 7:25 PM
Waxing Gibbous, 95% visible
Pressure 29.98 in
Visibility 10.0 miles
Clouds Scattered Clouds 6000 ft
Heat Index 84 °F
Dew Point 64 °F
Humidity 53%
Rainfall in
Snow Depth Not available.
UV 5 out of 12
Pollen 8.10 out of 12
Air Quality Not available.
Flu Activity Not available.
METAR KMEI 272058Z 35006KT 10SM SCT060 29/14 A2999 RMK AO2 SLP152 T02940139 56016
Pressure 29.98 in
Visibility 10.0 miles
Clouds Scattered Clouds 6000 ft
Heat Index 84 °F
Dew Point 64 °F
Humidity 53%
Rainfall in
Snow Depth Not available.
UV 5 out of 12
Pollen 8.10 out of 12
Air Quality Not available.
Flu Activity Not available.
METAR KMEI 272058Z 35006KT 10SM SCT060 29/14 A2999 RMK AO2 SLP152 T02940139 56016

10-Day Weather Forecast

×

Almanac

Astronomy

Aug. 27, 2015 Rise Set
Actual Time
Civil Twilight
Nautical Twilight
Astronomical Twilight
Moon
Length of Visible Light
Length of Day
Tomorrow will be .
, % of the Moon is Illuminated

Today's Extremes

State Highs State Lows

Community

WunderPhotos

Upload Photos

1,850,235 photos uploaded!

WunderBlogs® & News

Nearby

Air Quality

  Air Quality AQ Index Pollutant
Not available.

Snow Depth

Station Depth Elevation

Earthquake Activity

City Distance Mag. Time & Date
Minimum magnitude displayed is 2.5.

Coastal Water Temperatures

Place Temperature

Stations

Nearby Weather Stations

Station Location Temp. Windchill Dew Point Humidity Wind Precip. Elev Updated Type